sensor_id;sensor_type;location;lat;lon;timestamp;P1;durP1;ratioP1;P2;durP2;ratioP2
36663;SDS011;53333;51.976;20.144;2022-09-21T00:01:28;13.27;;;7.72;;
36663;SDS011;53333;51.976;20.144;2022-09-21T00:04:08;12.85;;;7.38;;
36663;SDS011;53333;51.976;20.144;2022-09-21T00:06:46;10.75;;;7.18;;
36663;SDS011;53333;51.976;20.144;2022-09-21T00:09:24;12.77;;;8.07;;
36663;SDS011;53333;51.976;20.144;2022-09-21T00:14:31;12.35;;;6.95;;
36663;SDS011;53333;51.976;20.144;2022-09-21T00:17:07;11.23;;;7.53;;
36663;SDS011;53333;51.976;20.144;2022-09-21T00:19:41;15.43;;;8.70;;
36663;SDS011;53333;51.976;20.144;2022-09-21T00:22:16;14.65;;;8.68;;
36663;SDS011;53333;51.976;20.144;2022-09-21T00:24:57;16.98;;;9.57;;
36663;SDS011;53333;51.976;20.144;2022-09-21T00:27:32;14.98;;;9.02;;
36663;SDS011;53333;51.976;20.144;2022-09-21T00:30:09;14.73;;;9.13;;
36663;SDS011;53333;51.976;20.144;2022-09-21T00:32:43;15.80;;;9.65;;
36663;SDS011;53333;51.976;20.144;2022-09-21T00:35:20;18.65;;;9.73;;
36663;SDS011;53333;51.976;20.144;2022-09-21T00:38:04;16.20;;;9.20;;
36663;SDS011;53333;51.976;20.144;2022-09-21T00:40:41;15.68;;;9.15;;
36663;SDS011;53333;51.976;20.144;2022-09-21T00:43:15;16.63;;;9.35;;
36663;SDS011;53333;51.976;20.144;2022-09-21T00:45:49;14.77;;;9.05;;
36663;SDS011;53333;51.976;20.144;2022-09-21T00:48:32;16.63;;;9.38;;
36663;SDS011;53333;51.976;20.144;2022-09-21T00:51:06;15.93;;;10.25;;
36663;SDS011;53333;51.976;20.144;2022-09-21T00:53:42;16.98;;;10.50;;
36663;SDS011;53333;51.976;20.144;2022-09-21T00:56:16;15.50;;;10.63;;
36663;SDS011;53333;51.976;20.144;2022-09-21T00:58:51;15.77;;;10.20;;
36663;SDS011;53333;51.976;20.144;2022-09-21T01:01:26;14.50;;;9.23;;
36663;SDS011;53333;51.976;20.144;2022-09-21T01:04:00;14.82;;;9.48;;
36663;SDS011;53333;51.976;20.144;2022-09-21T01:06:34;13.98;;;9.48;;
36663;SDS011;53333;51.976;20.144;2022-09-21T01:09:12;14.93;;;8.90;;
36663;SDS011;53333;51.976;20.144;2022-09-21T01:11:49;14.15;;;9.73;;
36663;SDS011;53333;51.976;20.144;2022-09-21T01:14:34;13.45;;;9.50;;
36663;SDS011;53333;51.976;20.144;2022-09-21T01:17:23;12.35;;;9.05;;
36663;SDS011;53333;51.976;20.144;2022-09-21T01:23:21;15.73;;;10.15;;
36663;SDS011;53333;51.976;20.144;2022-09-21T01:26:09;15.02;;;9.60;;
36663;SDS011;53333;51.976;20.144;2022-09-21T01:31:52;15.18;;;9.35;;
36663;SDS011;53333;51.976;20.144;2022-09-21T01:34:32;19.08;;;10.18;;
36663;SDS011;53333;51.976;20.144;2022-09-21T01:37:10;14.38;;;9.55;;
36663;SDS011;53333;51.976;20.144;2022-09-21T01:39:48;17.42;;;10.25;;
36663;SDS011;53333;51.976;20.144;2022-09-21T01:42:26;13.95;;;10.18;;
36663;SDS011;53333;51.976;20.144;2022-09-21T01:45:05;16.63;;;9.77;;
36663;SDS011;53333;51.976;20.144;2022-09-21T01:47:48;15.70;;;9.73;;
36663;SDS011;53333;51.976;20.144;2022-09-21T01:50:28;14.95;;;9.50;;
36663;SDS011;53333;51.976;20.144;2022-09-21T01:53:06;15.55;;;9.70;;
36663;SDS011;53333;51.976;20.144;2022-09-21T01:55:43;15.32;;;9.43;;
36663;SDS011;53333;51.976;20.144;2022-09-21T01:58:23;15.35;;;9.82;;
36663;SDS011;53333;51.976;20.144;2022-09-21T02:01:05;15.27;;;9.88;;
36663;SDS011;53333;51.976;20.144;2022-09-21T02:03:43;17.40;;;11.00;;
36663;SDS011;53333;51.976;20.144;2022-09-21T02:06:19;14.43;;;10.55;;
36663;SDS011;53333;51.976;20.144;2022-09-21T02:11:27;16.10;;;10.75;;
36663;SDS011;53333;51.976;20.144;2022-09-21T02:14:00;13.23;;;9.75;;
36663;SDS011;53333;51.976;20.144;2022-09-21T02:16:41;17.63;;;10.68;;
36663;SDS011;53333;51.976;20.144;2022-09-21T02:19:25;15.15;;;11.48;;
36663;SDS011;53333;51.976;20.144;2022-09-21T02:22:08;15.15;;;10.98;;
36663;SDS011;53333;51.976;20.144;2022-09-21T02:24:45;16.70;;;10.57;;
36663;SDS011;53333;51.976;20.144;2022-09-21T02:27:23;15.30;;;10.45;;
36663;SDS011;53333;51.976;20.144;2022-09-21T02:30:05;16.23;;;10.82;;
36663;SDS011;53333;51.976;20.144;2022-09-21T02:32:44;16.77;;;11.20;;
36663;SDS011;53333;51.976;20.144;2022-09-21T02:35:26;15.65;;;11.25;;
36663;SDS011;53333;51.976;20.144;2022-09-21T02:38:08;16.08;;;11.40;;
36663;SDS011;53333;51.976;20.144;2022-09-21T02:40:49;17.08;;;11.55;;
36663;SDS011;53333;51.976;20.144;2022-09-21T02:43:25;15.95;;;11.02;;
36663;SDS011;53333;51.976;20.144;2022-09-21T02:46:05;15.60;;;10.07;;
36663;SDS011;53333;51.976;20.144;2022-09-21T02:48:48;14.27;;;10.55;;
36663;SDS011;53333;51.976;20.144;2022-09-21T02:51:26;17.02;;;11.32;;
36663;SDS011;53333;51.976;20.144;2022-09-21T02:54:03;17.38;;;11.60;;
36663;SDS011;53333;51.976;20.144;2022-09-21T02:56:40;16.35;;;10.77;;
36663;SDS011;53333;51.976;20.144;2022-09-21T02:59:15;16.35;;;11.57;;
36663;SDS011;53333;51.976;20.144;2022-09-21T03:01:50;17.10;;;12.02;;
36663;SDS011;53333;51.976;20.144;2022-09-21T03:04:25;18.38;;;11.48;;
36663;SDS011;53333;51.976;20.144;2022-09-21T03:06:59;17.60;;;11.15;;
36663;SDS011;53333;51.976;20.144;2022-09-21T03:09:32;18.50;;;12.75;;
36663;SDS011;53333;51.976;20.144;2022-09-21T03:12:06;16.77;;;11.27;;
36663;SDS011;53333;51.976;20.144;2022-09-21T03:14:39;15.45;;;11.75;;
36663;SDS011;53333;51.976;20.144;2022-09-21T03:17:13;15.95;;;11.88;;
36663;SDS011;53333;51.976;20.144;2022-09-21T03:19:48;18.23;;;11.80;;
36663;SDS011;53333;51.976;20.144;2022-09-21T03:22:22;16.83;;;11.90;;
36663;SDS011;53333;51.976;20.144;2022-09-21T03:24:56;19.40;;;12.20;;
36663;SDS011;53333;51.976;20.144;2022-09-21T03:27:29;19.50;;;13.48;;
36663;SDS011;53333;51.976;20.144;2022-09-21T03:30:03;17.60;;;11.63;;
36663;SDS011;53333;51.976;20.144;2022-09-21T03:32:37;19.75;;;13.32;;
36663;SDS011;53333;51.976;20.144;2022-09-21T03:35:12;17.92;;;11.05;;
36663;SDS011;53333;51.976;20.144;2022-09-21T03:37:45;19.27;;;12.55;;
36663;SDS011;53333;51.976;20.144;2022-09-21T03:40:20;19.30;;;13.10;;
36663;SDS011;53333;51.976;20.144;2022-09-21T03:42:54;19.95;;;13.93;;
36663;SDS011;53333;51.976;20.144;2022-09-21T03:45:27;17.58;;;12.88;;
36663;SDS011;53333;51.976;20.144;2022-09-21T03:48:01;16.40;;;12.00;;
36663;SDS011;53333;51.976;20.144;2022-09-21T03:50:36;20.13;;;12.68;;
36663;SDS011;53333;51.976;20.144;2022-09-21T03:53:10;16.23;;;12.52;;
36663;SDS011;53333;51.976;20.144;2022-09-21T03:55:44;20.17;;;12.35;;
36663;SDS011;53333;51.976;20.144;2022-09-21T03:58:18;21.10;;;13.40;;
36663;SDS011;53333;51.976;20.144;2022-09-21T04:00:52;20.73;;;13.23;;
36663;SDS011;53333;51.976;20.144;2022-09-21T04:03:26;19.77;;;12.60;;
36663;SDS011;53333;51.976;20.144;2022-09-21T04:08:40;18.08;;;12.65;;
36663;SDS011;53333;51.976;20.144;2022-09-21T04:11:15;17.38;;;12.18;;
36663;SDS011;53333;51.976;20.144;2022-09-21T04:13:50;20.60;;;13.45;;
36663;SDS011;53333;51.976;20.144;2022-09-21T04:16:28;17.58;;;12.98;;
36663;SDS011;53333;51.976;20.144;2022-09-21T04:19:01;20.23;;;14.30;;
36663;SDS011;53333;51.976;20.144;2022-09-21T04:21:36;19.17;;;14.05;;
36663;SDS011;53333;51.976;20.144;2022-09-21T04:24:10;17.02;;;12.90;;
36663;SDS011;53333;51.976;20.144;2022-09-21T04:26:44;22.73;;;14.45;;
36663;SDS011;53333;51.976;20.144;2022-09-21T04:29:18;21.88;;;13.32;;
36663;SDS011;53333;51.976;20.144;2022-09-21T04:31:52;18.17;;;14.52;;
36663;SDS011;53333;51.976;20.144;2022-09-21T04:34:25;20.55;;;13.43;;
36663;SDS011;53333;51.976;20.144;2022-09-21T04:37:00;18.00;;;13.82;;
36663;SDS011;53333;51.976;20.144;2022-09-21T04:39:33;17.90;;;13.70;;
36663;SDS011;53333;51.976;20.144;2022-09-21T04:42:07;23.30;;;15.38;;
36663;SDS011;53333;51.976;20.144;2022-09-21T04:44:41;19.60;;;14.60;;
36663;SDS011;53333;51.976;20.144;2022-09-21T04:47:14;20.38;;;13.68;;
36663;SDS011;53333;51.976;20.144;2022-09-21T04:49:47;30.70;;;20.58;;
36663;SDS011;53333;51.976;20.144;2022-09-21T04:52:23;23.17;;;16.65;;
36663;SDS011;53333;51.976;20.144;2022-09-21T04:54:57;18.10;;;12.88;;
36663;SDS011;53333;51.976;20.144;2022-09-21T04:57:30;22.83;;;15.63;;
36663;SDS011;53333;51.976;20.144;2022-09-21T05:00:04;19.55;;;12.98;;
36663;SDS011;53333;51.976;20.144;2022-09-21T05:02:38;20.80;;;12.77;;
36663;SDS011;53333;51.976;20.144;2022-09-21T05:05:12;18.27;;;13.50;;
36663;SDS011;53333;51.976;20.144;2022-09-21T05:12:52;44.65;;;24.98;;
36663;SDS011;53333;51.976;20.144;2022-09-21T05:15:25;23.15;;;14.13;;
36663;SDS011;53333;51.976;20.144;2022-09-21T05:17:59;16.50;;;12.90;;
36663;SDS011;53333;51.976;20.144;2022-09-21T05:20:35;16.20;;;13.75;;
36663;SDS011;53333;51.976;20.144;2022-09-21T05:23:10;19.50;;;14.45;;
36663;SDS011;53333;51.976;20.144;2022-09-21T05:25:47;19.67;;;13.43;;
36663;SDS011;53333;51.976;20.144;2022-09-21T05:30:56;18.73;;;12.93;;
36663;SDS011;53333;51.976;20.144;2022-09-21T05:33:49;20.60;;;13.07;;
36663;SDS011;53333;51.976;20.144;2022-09-21T05:36:29;19.20;;;14.13;;
36663;SDS011;53333;51.976;20.144;2022-09-21T05:39:14;18.52;;;13.50;;
36663;SDS011;53333;51.976;20.144;2022-09-21T05:41:48;18.40;;;14.40;;
36663;SDS011;53333;51.976;20.144;2022-09-21T05:44:23;23.58;;;14.23;;
36663;SDS011;53333;51.976;20.144;2022-09-21T05:46:58;18.52;;;12.88;;
36663;SDS011;53333;51.976;20.144;2022-09-21T05:49:39;17.20;;;13.50;;
36663;SDS011;53333;51.976;20.144;2022-09-21T05:52:22;16.55;;;14.07;;
36663;SDS011;53333;51.976;20.144;2022-09-21T05:55:09;22.10;;;13.65;;
36663;SDS011;53333;51.976;20.144;2022-09-21T05:57:54;19.23;;;13.95;;
36663;SDS011;53333;51.976;20.144;2022-09-21T06:00:37;17.55;;;14.30;;
36663;SDS011;53333;51.976;20.144;2022-09-21T06:03:21;25.75;;;13.80;;
36663;SDS011;53333;51.976;20.144;2022-09-21T06:05:59;20.13;;;14.02;;
36663;SDS011;53333;51.976;20.144;2022-09-21T06:08:33;18.60;;;13.20;;
36663;SDS011;53333;51.976;20.144;2022-09-21T06:11:08;19.33;;;13.55;;
36663;SDS011;53333;51.976;20.144;2022-09-21T06:13:41;19.65;;;14.55;;
36663;SDS011;53333;51.976;20.144;2022-09-21T06:16:15;17.60;;;14.07;;
36663;SDS011;53333;51.976;20.144;2022-09-21T06:18:48;21.05;;;14.18;;
36663;SDS011;53333;51.976;20.144;2022-09-21T06:21:22;19.48;;;14.23;;
36663;SDS011;53333;51.976;20.144;2022-09-21T06:23:55;16.98;;;12.93;;
36663;SDS011;53333;51.976;20.144;2022-09-21T06:26:30;18.15;;;12.98;;
36663;SDS011;53333;51.976;20.144;2022-09-21T06:29:03;19.83;;;13.27;;
36663;SDS011;53333;51.976;20.144;2022-09-21T06:31:37;16.58;;;13.00;;
36663;SDS011;53333;51.976;20.144;2022-09-21T06:34:11;17.55;;;12.23;;
36663;SDS011;53333;51.976;20.144;2022-09-21T06:36:44;15.80;;;12.00;;
36663;SDS011;53333;51.976;20.144;2022-09-21T06:39:18;18.58;;;12.30;;
36663;SDS011;53333;51.976;20.144;2022-09-21T06:41:53;15.13;;;11.75;;
36663;SDS011;53333;51.976;20.144;2022-09-21T06:44:27;17.20;;;11.15;;
36663;SDS011;53333;51.976;20.144;2022-09-21T06:47:01;16.02;;;10.98;;
36663;SDS011;53333;51.976;20.144;2022-09-21T06:52:13;14.88;;;10.73;;
36663;SDS011;53333;51.976;20.144;2022-09-21T06:57:21;14.60;;;10.98;;
36663;SDS011;53333;51.976;20.144;2022-09-21T06:59:55;16.27;;;11.40;;
36663;SDS011;53333;51.976;20.144;2022-09-21T07:02:28;15.30;;;10.38;;
36663;SDS011;53333;51.976;20.144;2022-09-21T07:05:02;13.07;;;10.52;;
36663;SDS011;53333;51.976;20.144;2022-09-21T07:07:37;10.98;;;9.27;;
36663;SDS011;53333;51.976;20.144;2022-09-21T07:10:11;14.95;;;10.05;;
36663;SDS011;53333;51.976;20.144;2022-09-21T07:12:52;12.13;;;9.35;;
36663;SDS011;53333;51.976;20.144;2022-09-21T07:15:26;11.98;;;9.80;;
36663;SDS011;53333;51.976;20.144;2022-09-21T07:18:04;11.68;;;9.25;;
36663;SDS011;53333;51.976;20.144;2022-09-21T07:20:43;11.35;;;10.00;;
36663;SDS011;53333;51.976;20.144;2022-09-21T07:25:50;13.63;;;9.60;;
36663;SDS011;53333;51.976;20.144;2022-09-21T07:31:04;11.57;;;9.30;;
36663;SDS011;53333;51.976;20.144;2022-09-21T07:33:39;11.23;;;8.85;;
36663;SDS011;53333;51.976;20.144;2022-09-21T07:36:15;9.35;;;8.43;;
36663;SDS011;53333;51.976;20.144;2022-09-21T07:38:48;9.77;;;8.65;;
36663;SDS011;53333;51.976;20.144;2022-09-21T07:41:22;10.90;;;8.48;;
36663;SDS011;53333;51.976;20.144;2022-09-21T07:43:57;10.73;;;8.80;;
36663;SDS011;53333;51.976;20.144;2022-09-21T07:46:31;11.52;;;8.35;;
36663;SDS011;53333;51.976;20.144;2022-09-21T07:49:04;9.63;;;7.68;;
36663;SDS011;53333;51.976;20.144;2022-09-21T07:51:38;11.63;;;8.25;;
36663;SDS011;53333;51.976;20.144;2022-09-21T07:54:11;63.72;;;34.08;;
36663;SDS011;53333;51.976;20.144;2022-09-21T07:56:46;10.18;;;9.10;;
36663;SDS011;53333;51.976;20.144;2022-09-21T07:59:41;9.07;;;8.18;;
36663;SDS011;53333;51.976;20.144;2022-09-21T08:02:14;9.90;;;7.38;;
36663;SDS011;53333;51.976;20.144;2022-09-21T08:07:21;8.30;;;6.53;;
36663;SDS011;53333;51.976;20.144;2022-09-21T08:09:55;9.32;;;6.75;;
36663;SDS011;53333;51.976;20.144;2022-09-21T08:12:29;8.95;;;7.10;;
36663;SDS011;53333;51.976;20.144;2022-09-21T08:15:04;7.50;;;6.50;;
36663;SDS011;53333;51.976;20.144;2022-09-21T08:17:55;7.93;;;6.72;;
36663;SDS011;53333;51.976;20.144;2022-09-21T08:20:29;7.40;;;6.70;;
36663;SDS011;53333;51.976;20.144;2022-09-21T08:23:03;6.80;;;5.95;;
36663;SDS011;53333;51.976;20.144;2022-09-21T08:25:36;7.47;;;6.78;;
36663;SDS011;53333;51.976;20.144;2022-09-21T08:28:10;10.80;;;5.80;;
36663;SDS011;53333;51.976;20.144;2022-09-21T08:30:45;6.97;;;6.38;;
36663;SDS011;53333;51.976;20.144;2022-09-21T08:33:18;55.00;;;40.17;;
36663;SDS011;53333;51.976;20.144;2022-09-21T08:35:57;10.98;;;8.52;;
36663;SDS011;53333;51.976;20.144;2022-09-21T08:38:32;8.77;;;6.10;;
36663;SDS011;53333;51.976;20.144;2022-09-21T08:41:13;6.60;;;5.95;;
36663;SDS011;53333;51.976;20.144;2022-09-21T08:43:51;6.35;;;5.75;;
36663;SDS011;53333;51.976;20.144;2022-09-21T08:46:29;7.65;;;6.78;;
36663;SDS011;53333;51.976;20.144;2022-09-21T08:49:06;7.97;;;6.00;;
36663;SDS011;53333;51.976;20.144;2022-09-21T08:51:46;7.43;;;5.97;;
36663;SDS011;53333;51.976;20.144;2022-09-21T08:54:26;7.95;;;5.78;;
36663;SDS011;53333;51.976;20.144;2022-09-21T08:57:07;5.47;;;5.05;;
36663;SDS011;53333;51.976;20.144;2022-09-21T08:59:45;6.38;;;4.90;;
36663;SDS011;53333;51.976;20.144;2022-09-21T09:02:30;5.53;;;4.63;;
36663;SDS011;53333;51.976;20.144;2022-09-21T09:05:15;6.75;;;4.80;;
36663;SDS011;53333;51.976;20.144;2022-09-21T09:08:07;6.68;;;4.60;;
36663;SDS011;53333;51.976;20.144;2022-09-21T09:10:52;6.32;;;5.00;;
36663;SDS011;53333;51.976;20.144;2022-09-21T09:16:35;5.38;;;3.42;;
36663;SDS011;53333;51.976;20.144;2022-09-21T09:19:20;5.95;;;3.40;;
36663;SDS011;53333;51.976;20.144;2022-09-21T09:21:59;5.03;;;3.58;;
36663;SDS011;53333;51.976;20.144;2022-09-21T09:24:35;5.85;;;3.20;;
36663;SDS011;53333;51.976;20.144;2022-09-21T09:27:14;5.43;;;2.88;;
36663;SDS011;53333;51.976;20.144;2022-09-21T09:29:53;5.72;;;2.70;;
36663;SDS011;53333;51.976;20.144;2022-09-21T09:32:36;3.20;;;2.25;;
36663;SDS011;53333;51.976;20.144;2022-09-21T09:35:18;5.35;;;2.47;;
36663;SDS011;53333;51.976;20.144;2022-09-21T09:37:58;4.28;;;2.92;;
36663;SDS011;53333;51.976;20.144;2022-09-21T09:40:45;1.92;;;1.73;;
36663;SDS011;53333;51.976;20.144;2022-09-21T09:43:30;6.40;;;3.20;;
36663;SDS011;53333;51.976;20.144;2022-09-21T09:46:14;1.85;;;1.50;;
36663;SDS011;53333;51.976;20.144;2022-09-21T09:49:06;2.78;;;2.15;;
36663;SDS011;53333;51.976;20.144;2022-09-21T09:51:51;3.35;;;1.63;;
36663;SDS011;53333;51.976;20.144;2022-09-21T09:54:26;3.75;;;1.70;;
36663;SDS011;53333;51.976;20.144;2022-09-21T09:57:02;3.42;;;1.52;;
36663;SDS011;53333;51.976;20.144;2022-09-21T09:59:37;3.53;;;2.10;;
36663;SDS011;53333;51.976;20.144;2022-09-21T10:02:19;2.88;;;1.70;;
36663;SDS011;53333;51.976;20.144;2022-09-21T10:04:56;2.30;;;2.05;;
36663;SDS011;53333;51.976;20.144;2022-09-21T10:07:39;3.65;;;2.33;;
36663;SDS011;53333;51.976;20.144;2022-09-21T10:10:28;3.53;;;1.90;;
36663;SDS011;53333;51.976;20.144;2022-09-21T10:13:10;4.50;;;1.70;;
36663;SDS011;53333;51.976;20.144;2022-09-21T10:15:48;4.78;;;2.65;;
36663;SDS011;53333;51.976;20.144;2022-09-21T10:18:24;2.92;;;1.50;;
36663;SDS011;53333;51.976;20.144;2022-09-21T10:21:04;4.32;;;1.80;;
36663;SDS011;53333;51.976;20.144;2022-09-21T10:23:41;3.83;;;2.20;;
36663;SDS011;53333;51.976;20.144;2022-09-21T10:26:19;3.00;;;1.60;;
36663;SDS011;53333;51.976;20.144;2022-09-21T10:28:54;2.10;;;1.60;;
36663;SDS011;53333;51.976;20.144;2022-09-21T10:31:31;3.55;;;1.75;;
36663;SDS011;53333;51.976;20.144;2022-09-21T10:34:06;2.72;;;1.30;;
36663;SDS011;53333;51.976;20.144;2022-09-21T10:36:49;1.33;;;0.90;;
36663;SDS011;53333;51.976;20.144;2022-09-21T10:39:27;2.30;;;1.63;;
36663;SDS011;53333;51.976;20.144;2022-09-21T10:42:02;2.38;;;1.20;;
36663;SDS011;53333;51.976;20.144;2022-09-21T10:44:40;2.83;;;1.13;;
36663;SDS011;53333;51.976;20.144;2022-09-21T10:47:16;3.00;;;1.92;;
36663;SDS011;53333;51.976;20.144;2022-09-21T10:49:52;3.45;;;2.50;;
36663;SDS011;53333;51.976;20.144;2022-09-21T10:52:31;4.32;;;1.60;;
36663;SDS011;53333;51.976;20.144;2022-09-21T10:55:20;2.85;;;1.35;;
36663;SDS011;53333;51.976;20.144;2022-09-21T10:57:56;2.15;;;1.38;;
36663;SDS011;53333;51.976;20.144;2022-09-21T11:00:34;1.17;;;0.98;;
36663;SDS011;53333;51.976;20.144;2022-09-21T11:03:32;1.92;;;1.20;;
36663;SDS011;53333;51.976;20.144;2022-09-21T11:06:15;1.40;;;0.95;;
36663;SDS011;53333;51.976;20.144;2022-09-21T11:08:54;1.50;;;1.20;;
36663;SDS011;53333;51.976;20.144;2022-09-21T11:11:36;4.20;;;1.10;;
36663;SDS011;53333;51.976;20.144;2022-09-21T11:14:20;1.52;;;1.00;;
36663;SDS011;53333;51.976;20.144;2022-09-21T11:17:06;1.92;;;1.45;;
36663;SDS011;53333;51.976;20.144;2022-09-21T11:19:45;2.58;;;1.20;;
36663;SDS011;53333;51.976;20.144;2022-09-21T11:22:24;2.30;;;1.40;;
36663;SDS011;53333;51.976;20.144;2022-09-21T11:25:14;2.85;;;1.55;;
36663;SDS011;53333;51.976;20.144;2022-09-21T11:28:03;4.57;;;1.40;;
36663;SDS011;53333;51.976;20.144;2022-09-21T11:30:48;3.08;;;1.38;;
36663;SDS011;53333;51.976;20.144;2022-09-21T11:33:44;1.38;;;1.08;;
36663;SDS011;53333;51.976;20.144;2022-09-21T11:36:36;1.38;;;1.27;;
36663;SDS011;53333;51.976;20.144;2022-09-21T11:39:19;3.33;;;2.25;;
36663;SDS011;53333;51.976;20.144;2022-09-21T11:42:17;2.58;;;1.10;;
36663;SDS011;53333;51.976;20.144;2022-09-21T11:45:02;2.88;;;1.50;;
36663;SDS011;53333;51.976;20.144;2022-09-21T11:47:48;2.33;;;0.93;;
36663;SDS011;53333;51.976;20.144;2022-09-21T11:50:42;1.25;;;0.88;;
36663;SDS011;53333;51.976;20.144;2022-09-21T11:53:26;5.35;;;1.70;;
36663;SDS011;53333;51.976;20.144;2022-09-21T11:56:15;4.68;;;1.80;;
36663;SDS011;53333;51.976;20.144;2022-09-21T11:59:02;3.17;;;2.17;;
36663;SDS011;53333;51.976;20.144;2022-09-21T12:01:53;5.97;;;2.97;;
36663;SDS011;53333;51.976;20.144;2022-09-21T12:04:42;4.45;;;2.67;;
36663;SDS011;53333;51.976;20.144;2022-09-21T12:07:31;2.83;;;1.88;;
36663;SDS011;53333;51.976;20.144;2022-09-21T12:10:29;3.30;;;2.15;;
36663;SDS011;53333;51.976;20.144;2022-09-21T12:13:21;2.47;;;1.90;;
36663;SDS011;53333;51.976;20.144;2022-09-21T12:16:08;2.65;;;1.58;;
36663;SDS011;53333;51.976;20.144;2022-09-21T12:18:47;2.65;;;1.58;;
36663;SDS011;53333;51.976;20.144;2022-09-21T12:21:33;2.63;;;1.42;;
36663;SDS011;53333;51.976;20.144;2022-09-21T12:24:13;1.38;;;1.23;;
36663;SDS011;53333;51.976;20.144;2022-09-21T12:27:04;2.63;;;1.38;;
36663;SDS011;53333;51.976;20.144;2022-09-21T12:29:46;1.83;;;1.02;;
36663;SDS011;53333;51.976;20.144;2022-09-21T12:35:11;1.90;;;1.20;;
36663;SDS011;53333;51.976;20.144;2022-09-21T12:37:48;3.10;;;1.27;;
36663;SDS011;53333;51.976;20.144;2022-09-21T12:40:31;1.48;;;0.95;;
36663;SDS011;53333;51.976;20.144;2022-09-21T12:43:14;2.03;;;1.17;;
36663;SDS011;53333;51.976;20.144;2022-09-21T12:45:59;1.88;;;1.27;;
36663;SDS011;53333;51.976;20.144;2022-09-21T12:48:41;2.08;;;1.30;;
36663;SDS011;53333;51.976;20.144;2022-09-21T12:51:19;2.15;;;1.05;;
36663;SDS011;53333;51.976;20.144;2022-09-21T12:53:57;2.17;;;1.20;;
36663;SDS011;53333;51.976;20.144;2022-09-21T12:56:38;2.40;;;1.20;;
36663;SDS011;53333;51.976;20.144;2022-09-21T12:59:26;2.00;;;1.10;;
36663;SDS011;53333;51.976;20.144;2022-09-21T13:02:15;27.42;;;21.02;;
36663;SDS011;53333;51.976;20.144;2022-09-21T13:04:57;2.38;;;1.85;;
36663;SDS011;53333;51.976;20.144;2022-09-21T13:10:39;3.55;;;1.20;;
36663;SDS011;53333;51.976;20.144;2022-09-21T13:13:26;1.63;;;1.23;;
36663;SDS011;53333;51.976;20.144;2022-09-21T13:16:06;2.13;;;1.27;;
36663;SDS011;53333;51.976;20.144;2022-09-21T13:18:54;1.90;;;1.33;;
36663;SDS011;53333;51.976;20.144;2022-09-21T13:21:31;1.55;;;1.08;;
36663;SDS011;53333;51.976;20.144;2022-09-21T13:24:06;1.75;;;1.30;;
36663;SDS011;53333;51.976;20.144;2022-09-21T13:27:00;1.60;;;1.00;;
36663;SDS011;53333;51.976;20.144;2022-09-21T13:29:38;2.47;;;1.35;;
36663;SDS011;53333;51.976;20.144;2022-09-21T13:32:20;2.15;;;1.50;;
36663;SDS011;53333;51.976;20.144;2022-09-21T13:34:55;3.38;;;1.30;;
36663;SDS011;53333;51.976;20.144;2022-09-21T13:38:25;1.77;;;1.38;;
36663;SDS011;53333;51.976;20.144;2022-09-21T13:41:00;2.15;;;1.30;;
36663;SDS011;53333;51.976;20.144;2022-09-21T13:46:53;1.63;;;1.00;;
36663;SDS011;53333;51.976;20.144;2022-09-21T13:49:38;2.35;;;1.00;;
36663;SDS011;53333;51.976;20.144;2022-09-21T13:52:23;6.15;;;4.18;;
36663;SDS011;53333;51.976;20.144;2022-09-21T13:55:18;2.53;;;1.73;;
36663;SDS011;53333;51.976;20.144;2022-09-21T13:57:57;3.30;;;1.00;;
36663;SDS011;53333;51.976;20.144;2022-09-21T14:00:36;1.98;;;1.40;;
36663;SDS011;53333;51.976;20.144;2022-09-21T14:03:18;1.33;;;1.13;;
36663;SDS011;53333;51.976;20.144;2022-09-21T14:06:04;1.52;;;0.90;;
36663;SDS011;53333;51.976;20.144;2022-09-21T14:08:44;1.88;;;0.70;;
36663;SDS011;53333;51.976;20.144;2022-09-21T14:11:28;1.15;;;0.75;;
36663;SDS011;53333;51.976;20.144;2022-09-21T14:14:06;3.95;;;0.80;;
36663;SDS011;53333;51.976;20.144;2022-09-21T14:22:37;2.05;;;1.35;;
36663;SDS011;53333;51.976;20.144;2022-09-21T14:28:24;1.77;;;1.33;;
36663;SDS011;53333;51.976;20.144;2022-09-21T14:31:11;4.28;;;1.83;;
36663;SDS011;53333;51.976;20.144;2022-09-21T14:33:50;4.45;;;2.20;;
36663;SDS011;53333;51.976;20.144;2022-09-21T14:36:36;5.18;;;2.15;;
36663;SDS011;53333;51.976;20.144;2022-09-21T14:39:16;6.47;;;3.00;;
36663;SDS011;53333;51.976;20.144;2022-09-21T14:41:57;3.10;;;2.05;;
36663;SDS011;53333;51.976;20.144;2022-09-21T14:44:37;6.85;;;2.83;;
36663;SDS011;53333;51.976;20.144;2022-09-21T14:47:25;8.50;;;3.10;;
36663;SDS011;53333;51.976;20.144;2022-09-21T14:50:20;16.38;;;9.05;;
36663;SDS011;53333;51.976;20.144;2022-09-21T14:56:21;1.38;;;0.88;;
36663;SDS011;53333;51.976;20.144;2022-09-21T14:59:05;1.67;;;1.00;;
36663;SDS011;53333;51.976;20.144;2022-09-21T15:01:55;2.10;;;0.93;;
36663;SDS011;53333;51.976;20.144;2022-09-21T15:04:39;1.00;;;0.90;;
36663;SDS011;53333;51.976;20.144;2022-09-21T15:07:28;2.38;;;1.45;;
36663;SDS011;53333;51.976;20.144;2022-09-21T15:10:27;2.92;;;2.03;;
36663;SDS011;53333;51.976;20.144;2022-09-21T15:13:43;4.82;;;2.70;;
36663;SDS011;53333;51.976;20.144;2022-09-21T15:16:25;11.02;;;5.90;;
36663;SDS011;53333;51.976;20.144;2022-09-21T15:19:13;4.63;;;3.10;;
36663;SDS011;53333;51.976;20.144;2022-09-21T15:21:53;4.80;;;2.92;;
36663;SDS011;53333;51.976;20.144;2022-09-21T15:24:28;6.07;;;2.88;;
36663;SDS011;53333;51.976;20.144;2022-09-21T15:27:05;5.55;;;3.60;;
36663;SDS011;53333;51.976;20.144;2022-09-21T15:29:42;5.90;;;3.42;;
36663;SDS011;53333;51.976;20.144;2022-09-21T15:32:24;4.45;;;2.85;;
36663;SDS011;53333;51.976;20.144;2022-09-21T15:35:17;5.65;;;3.95;;
36663;SDS011;53333;51.976;20.144;2022-09-21T15:37:53;7.13;;;4.45;;
36663;SDS011;53333;51.976;20.144;2022-09-21T15:40:28;8.50;;;4.38;;
36663;SDS011;53333;51.976;20.144;2022-09-21T15:43:03;10.75;;;6.57;;
36663;SDS011;53333;51.976;20.144;2022-09-21T15:45:44;7.95;;;4.50;;
36663;SDS011;53333;51.976;20.144;2022-09-21T15:48:23;5.80;;;4.57;;
36663;SDS011;53333;51.976;20.144;2022-09-21T15:51:00;9.93;;;5.32;;
36663;SDS011;53333;51.976;20.144;2022-09-21T15:53:41;8.02;;;5.68;;
36663;SDS011;53333;51.976;20.144;2022-09-21T15:56:18;9.80;;;5.35;;
36663;SDS011;53333;51.976;20.144;2022-09-21T15:58:57;10.00;;;5.68;;
36663;SDS011;53333;51.976;20.144;2022-09-21T16:01:40;8.30;;;5.20;;
36663;SDS011;53333;51.976;20.144;2022-09-21T16:04:22;9.30;;;5.70;;
36663;SDS011;53333;51.976;20.144;2022-09-21T16:07:00;27.10;;;17.33;;
36663;SDS011;53333;51.976;20.144;2022-09-21T16:09:37;15.88;;;9.20;;
36663;SDS011;53333;51.976;20.144;2022-09-21T16:15:17;12.93;;;7.53;;
36663;SDS011;53333;51.976;20.144;2022-09-21T16:17:56;13.68;;;7.38;;
36663;SDS011;53333;51.976;20.144;2022-09-21T16:20:39;12.55;;;8.18;;
36663;SDS011;53333;51.976;20.144;2022-09-21T16:23:16;14.15;;;7.95;;
36663;SDS011;53333;51.976;20.144;2022-09-21T16:25:54;16.17;;;8.75;;
36663;SDS011;53333;51.976;20.144;2022-09-21T16:28:35;18.42;;;9.23;;
36663;SDS011;53333;51.976;20.144;2022-09-21T16:31:29;20.67;;;10.68;;
36663;SDS011;53333;51.976;20.144;2022-09-21T16:36:52;18.25;;;10.98;;
36663;SDS011;53333;51.976;20.144;2022-09-21T16:39:29;16.75;;;11.32;;